sensor_id;sensor_type;location;lat;lon;timestamp;pressure;altitude;pressure_sealevel;temperature;humidity
8051;BME280;4068;42.158;24.732;2023-01-08T00:01:11;100365.50;;;0.65;100.00
8051;BME280;4068;42.158;24.732;2023-01-08T00:03:37;100362.31;;;0.54;100.00
8051;BME280;4068;42.158;24.732;2023-01-08T00:06:05;100364.91;;;0.56;100.00
8051;BME280;4068;42.158;24.732;2023-01-08T00:08:32;100357.97;;;0.55;100.00
8051;BME280;4068;42.158;24.732;2023-01-08T00:10:58;100357.66;;;0.65;100.00
8051;BME280;4068;42.158;24.732;2023-01-08T00:13:24;100342.25;;;0.56;100.00
8051;BME280;4068;42.158;24.732;2023-01-08T00:15:49;100328.50;;;0.49;100.00
8051;BME280;4068;42.158;24.732;2023-01-08T00:18:15;100370.88;;;0.59;100.00
8051;BME280;4068;42.158;24.732;2023-01-08T00:20:42;100335.63;;;0.43;100.00
8051;BME280;4068;42.158;24.732;2023-01-08T00:23:15;100323.94;;;0.25;100.00
8051;BME280;4068;42.158;24.732;2023-01-08T00:25:41;100348.94;;;0.33;100.00
8051;BME280;4068;42.158;24.732;2023-01-08T00:28:07;100354.34;;;0.26;100.00
8051;BME280;4068;42.158;24.732;2023-01-08T00:30:32;100344.94;;;0.20;100.00
8051;BME280;4068;42.158;24.732;2023-01-08T00:32:58;100362.09;;;0.29;100.00
8051;BME280;4068;42.158;24.732;2023-01-08T00:35:23;100357.84;;;0.25;100.00
8051;BME280;4068;42.158;24.732;2023-01-08T00:37:49;100367.28;;;0.30;100.00
8051;BME280;4068;42.158;24.732;2023-01-08T00:40:14;100360.22;;;0.34;100.00
8051;BME280;4068;42.158;24.732;2023-01-08T00:42:40;100335.34;;;0.21;100.00
8051;BME280;4068;42.158;24.732;2023-01-08T00:45:06;100361.94;;;0.35;100.00
8051;BME280;4068;42.158;24.732;2023-01-08T00:47:31;100358.47;;;0.34;100.00
8051;BME280;4068;42.158;24.732;2023-01-08T00:49:57;100352.63;;;0.25;100.00
8051;BME280;4068;42.158;24.732;2023-01-08T00:52:23;100357.66;;;0.32;100.00
8051;BME280;4068;42.158;24.732;2023-01-08T00:54:48;100365.31;;;0.40;100.00
8051;BME280;4068;42.158;24.732;2023-01-08T00:57:14;100345.44;;;0.34;100.00
8051;BME280;4068;42.158;24.732;2023-01-08T00:59:39;100368.72;;;0.42;100.00
8051;BME280;4068;42.158;24.732;2023-01-08T01:02:05;100365.34;;;0.39;100.00
8051;BME280;4068;42.158;24.732;2023-01-08T01:04:30;100373.03;;;0.43;100.00
8051;BME280;4068;42.158;24.732;2023-01-08T01:06:56;100360.97;;;0.39;100.00
8051;BME280;4068;42.158;24.732;2023-01-08T01:09:22;100359.91;;;0.46;100.00
8051;BME280;4068;42.158;24.732;2023-01-08T01:11:47;100359.03;;;0.47;100.00
8051;BME280;4068;42.158;24.732;2023-01-08T01:14:12;100344.72;;;0.28;100.00
8051;BME280;4068;42.158;24.732;2023-01-08T01:16:38;100356.81;;;0.32;100.00
8051;BME280;4068;42.158;24.732;2023-01-08T01:19:05;100354.38;;;0.24;100.00
8051;BME280;4068;42.158;24.732;2023-01-08T01:21:31;100315.91;;;-0.02;100.00
8051;BME280;4068;42.158;24.732;2023-01-08T01:23:59;100336.56;;;0.07;100.00
8051;BME280;4068;42.158;24.732;2023-01-08T01:26:25;100352.03;;;0.13;100.00
8051;BME280;4068;42.158;24.732;2023-01-08T01:28:53;100338.16;;;0.11;100.00
8051;BME280;4068;42.158;24.732;2023-01-08T01:31:20;100327.09;;;0.03;100.00
8051;BME280;4068;42.158;24.732;2023-01-08T01:33:46;100338.91;;;0.16;100.00
8051;BME280;4068;42.158;24.732;2023-01-08T01:36:17;100328.44;;;0.18;100.00
8051;BME280;4068;42.158;24.732;2023-01-08T01:38:47;100339.72;;;0.20;100.00
8051;BME280;4068;42.158;24.732;2023-01-08T01:41:36;100336.44;;;0.12;100.00
8051;BME280;4068;42.158;24.732;2023-01-08T01:44:34;100326.16;;;0.04;100.00
8051;BME280;4068;42.158;24.732;2023-01-08T01:47:11;100326.13;;;0.07;100.00
8051;BME280;4068;42.158;24.732;2023-01-08T01:49:39;100331.34;;;0.06;100.00
8051;BME280;4068;42.158;24.732;2023-01-08T01:52:08;100302.19;;;-0.10;100.00
8051;BME280;4068;42.158;24.732;2023-01-08T01:54:35;100324.44;;;0.05;100.00
8051;BME280;4068;42.158;24.732;2023-01-08T01:57:01;100317.44;;;0.05;100.00
8051;BME280;4068;42.158;24.732;2023-01-08T01:59:27;100318.41;;;0.01;100.00
8051;BME280;4068;42.158;24.732;2023-01-08T02:01:54;100321.88;;;0.03;100.00
8051;BME280;4068;42.158;24.732;2023-01-08T02:04:20;100324.50;;;0.02;100.00
8051;BME280;4068;42.158;24.732;2023-01-08T02:07:11;100323.63;;;0.01;100.00
8051;BME280;4068;42.158;24.732;2023-01-08T02:12:38;100318.75;;;-0.11;100.00
8051;BME280;4068;42.158;24.732;2023-01-08T02:15:22;100319.63;;;-0.12;100.00
8051;BME280;4068;42.158;24.732;2023-01-08T02:18:07;100320.47;;;-0.12;100.00
8051;BME280;4068;42.158;24.732;2023-01-08T02:20:46;100320.66;;;-0.20;100.00
8051;BME280;4068;42.158;24.732;2023-01-08T02:23:46;100314.72;;;-0.26;100.00
8051;BME280;4068;42.158;24.732;2023-01-08T02:31:30;100314.78;;;-0.28;100.00
8051;BME280;4068;42.158;24.732;2023-01-08T02:33:56;100316.50;;;-0.27;100.00
8051;BME280;4068;42.158;24.732;2023-01-08T02:36:47;100311.25;;;-0.25;100.00
8051;BME280;4068;42.158;24.732;2023-01-08T02:39:52;100313.69;;;-0.19;100.00
8051;BME280;4068;42.158;24.732;2023-01-08T02:45:17;100317.94;;;-0.15;100.00
8051;BME280;4068;42.158;24.732;2023-01-08T02:48:03;100299.13;;;-0.28;100.00
8051;BME280;4068;42.158;24.732;2023-01-08T02:50:40;100310.34;;;-0.24;100.00
8051;BME280;4068;42.158;24.732;2023-01-08T02:53:12;100302.63;;;-0.29;100.00
8051;BME280;4068;42.158;24.732;2023-01-08T02:55:42;100314.00;;;-0.33;100.00
8051;BME280;4068;42.158;24.732;2023-01-08T02:58:09;100299.47;;;-0.43;100.00
8051;BME280;4068;42.158;24.732;2023-01-08T03:00:36;100298.78;;;-0.52;100.00
8051;BME280;4068;42.158;24.732;2023-01-08T03:03:11;100311.69;;;-0.45;100.00
8051;BME280;4068;42.158;24.732;2023-01-08T03:05:40;100310.00;;;-0.48;100.00
8051;BME280;4068;42.158;24.732;2023-01-08T03:08:07;100309.31;;;-0.56;100.00
8051;BME280;4068;42.158;24.732;2023-01-08T03:10:34;100293.72;;;-0.58;100.00
8051;BME280;4068;42.158;24.732;2023-01-08T03:13:06;100309.13;;;-0.47;100.00
8051;BME280;4068;42.158;24.732;2023-01-08T03:15:42;100308.25;;;-0.47;100.00
8051;BME280;4068;42.158;24.732;2023-01-08T03:18:13;100312.81;;;-0.57;100.00
8051;BME280;4068;42.158;24.732;2023-01-08T03:20:40;100318.00;;;-0.56;100.00
8051;BME280;4068;42.158;24.732;2023-01-08T03:23:08;100315.47;;;-0.59;100.00
8051;BME280;4068;42.158;24.732;2023-01-08T03:25:37;100305.09;;;-0.62;100.00
8051;BME280;4068;42.158;24.732;2023-01-08T03:28:07;100317.09;;;-0.55;100.00
8051;BME280;4068;42.158;24.732;2023-01-08T03:30:38;100308.41;;;-0.54;100.00
8051;BME280;4068;42.158;24.732;2023-01-08T03:33:06;100310.09;;;-0.51;100.00
8051;BME280;4068;42.158;24.732;2023-01-08T03:35:33;100278.31;;;-0.67;100.00
8051;BME280;4068;42.158;24.732;2023-01-08T03:38:06;100307.41;;;-0.48;100.00
8051;BME280;4068;42.158;24.732;2023-01-08T03:40:43;100318.75;;;-0.50;100.00
8051;BME280;4068;42.158;24.732;2023-01-08T03:43:10;100309.13;;;-0.47;100.00
8051;BME280;4068;42.158;24.732;2023-01-08T03:45:37;100291.09;;;-0.56;100.00
8051;BME280;4068;42.158;24.732;2023-01-08T03:48:08;100303.97;;;-0.48;100.00
8051;BME280;4068;42.158;24.732;2023-01-08T03:50:35;100305.81;;;-0.54;100.00
8051;BME280;4068;42.158;24.732;2023-01-08T03:53:00;100286.06;;;-0.64;100.00
8051;BME280;4068;42.158;24.732;2023-01-08T03:55:26;100265.44;;;-0.75;100.00
8051;BME280;4068;42.158;24.732;2023-01-08T03:57:51;100277.38;;;-0.64;100.00
8051;BME280;4068;42.158;24.732;2023-01-08T04:00:17;100298.91;;;-0.56;100.00
8051;BME280;4068;42.158;24.732;2023-01-08T04:02:42;100303.34;;;-0.60;100.00
8051;BME280;4068;42.158;24.732;2023-01-08T04:05:09;100305.91;;;-0.58;100.00
8051;BME280;4068;42.158;24.732;2023-01-08T04:07:34;100311.00;;;-0.54;100.00
8051;BME280;4068;42.158;24.732;2023-01-08T04:10:00;100266.41;;;-0.79;100.00
8051;BME280;4068;42.158;24.732;2023-01-08T04:12:25;100271.53;;;-0.76;100.00
8051;BME280;4068;42.158;24.732;2023-01-08T04:14:51;100310.22;;;-0.57;100.00
8051;BME280;4068;42.158;24.732;2023-01-08T04:17:16;100315.41;;;-0.57;100.00
8051;BME280;4068;42.158;24.732;2023-01-08T04:19:41;100288.44;;;-0.55;100.00
8051;BME280;4068;42.158;24.732;2023-01-08T04:22:09;100284.28;;;-0.24;100.00
8051;BME280;4068;42.158;24.732;2023-01-08T04:24:35;100284.50;;;0.01;100.00
8051;BME280;4068;42.158;24.732;2023-01-08T04:27:00;100316.78;;;0.33;100.00
8051;BME280;4068;42.158;24.732;2023-01-08T04:29:25;100308.88;;;0.67;100.00
8051;BME280;4068;42.158;24.732;2023-01-08T04:31:51;100324.94;;;0.85;100.00
8051;BME280;4068;42.158;24.732;2023-01-08T04:34:16;100338.84;;;0.85;100.00
8051;BME280;4068;42.158;24.732;2023-01-08T04:36:42;100302.09;;;0.62;100.00
8051;BME280;4068;42.158;24.732;2023-01-08T04:39:09;100310.09;;;0.87;100.00
8051;BME280;4068;42.158;24.732;2023-01-08T04:41:35;100325.34;;;1.01;100.00
8051;BME280;4068;42.158;24.732;2023-01-08T04:44:00;100338.66;;;0.93;100.00
8051;BME280;4068;42.158;24.732;2023-01-08T04:46:26;100338.38;;;0.71;100.00
8051;BME280;4068;42.158;24.732;2023-01-08T04:48:51;100307.75;;;0.45;100.00
8051;BME280;4068;42.158;24.732;2023-01-08T04:51:17;100348.25;;;0.60;100.00
8051;BME280;4068;42.158;24.732;2023-01-08T04:53:42;100345.03;;;0.50;100.00
8051;BME280;4068;42.158;24.732;2023-01-08T04:56:09;100344.09;;;0.52;100.00
8051;BME280;4068;42.158;24.732;2023-01-08T04:58:36;100328.22;;;0.27;100.00
8051;BME280;4068;42.158;24.732;2023-01-08T05:01:12;100322.91;;;-0.04;100.00
8051;BME280;4068;42.158;24.732;2023-01-08T05:03:37;100354.09;;;0.01;100.00
8051;BME280;4068;42.158;24.732;2023-01-08T05:06:03;100330.28;;;-0.23;100.00
8051;BME280;4068;42.158;24.732;2023-01-08T05:08:29;100351.19;;;-0.25;100.00
8051;BME280;4068;42.158;24.732;2023-01-08T05:10:57;100345.56;;;-0.44;100.00
8051;BME280;4068;42.158;24.732;2023-01-08T05:13:23;100331.13;;;-0.60;100.00
8051;BME280;4068;42.158;24.732;2023-01-08T05:15:48;100348.31;;;-0.52;100.00
8051;BME280;4068;42.158;24.732;2023-01-08T05:18:14;100327.94;;;-0.73;100.00
8051;BME280;4068;42.158;24.732;2023-01-08T05:20:39;100355.66;;;-0.71;100.00
8051;BME280;4068;42.158;24.732;2023-01-08T05:23:05;100357.44;;;-0.71;100.00
8051;BME280;4068;42.158;24.732;2023-01-08T05:25:30;100365.41;;;-0.80;100.00
8051;BME280;4068;42.158;24.732;2023-01-08T05:27:55;100327.81;;;-1.09;100.00
8051;BME280;4068;42.158;24.732;2023-01-08T05:30:21;100339.00;;;-1.04;100.00
8051;BME280;4068;42.158;24.732;2023-01-08T05:32:46;100357.09;;;-0.98;100.00
8051;BME280;4068;42.158;24.732;2023-01-08T05:35:12;100364.91;;;-0.98;100.00
8051;BME280;4068;42.158;24.732;2023-01-08T05:37:37;100360.72;;;-1.05;100.00
8051;BME280;4068;42.158;24.732;2023-01-08T05:40:03;100355.31;;;-0.96;100.00
8051;BME280;4068;42.158;24.732;2023-01-08T05:42:29;100349.16;;;-0.92;100.00
8051;BME280;4068;42.158;24.732;2023-01-08T05:44:55;100355.16;;;-0.88;100.00
8051;BME280;4068;42.158;24.732;2023-01-08T05:47:21;100357.75;;;-0.87;100.00
8051;BME280;4068;42.158;24.732;2023-01-08T05:49:46;100358.56;;;-0.84;100.00
8051;BME280;4068;42.158;24.732;2023-01-08T05:52:12;100357.97;;;-0.99;100.00
8051;BME280;4068;42.158;24.732;2023-01-08T05:54:37;100356.25;;;-1.00;100.00
8051;BME280;4068;42.158;24.732;2023-01-08T05:57:03;100364.09;;;-1.01;100.00
8051;BME280;4068;42.158;24.732;2023-01-08T05:59:28;100365.88;;;-1.03;100.00
8051;BME280;4068;42.158;24.732;2023-01-08T06:01:53;100370.13;;;-0.98;100.00
8051;BME280;4068;42.158;24.732;2023-01-08T06:04:19;100375.19;;;-0.92;100.00
8051;BME280;4068;42.158;24.732;2023-01-08T06:06:44;100360.44;;;-0.93;100.00
8051;BME280;4068;42.158;24.732;2023-01-08T06:09:10;100368.09;;;-0.83;100.00
8051;BME280;4068;42.158;24.732;2023-01-08T06:11:35;100361.91;;;-0.78;100.00
8051;BME280;4068;42.158;24.732;2023-01-08T06:14:01;100359.97;;;-0.68;100.00
8051;BME280;4068;42.158;24.732;2023-01-08T06:16:26;100359.72;;;-0.57;100.00
8051;BME280;4068;42.158;24.732;2023-01-08T06:18:51;100354.47;;;-0.56;100.00
8051;BME280;4068;42.158;24.732;2023-01-08T06:21:17;100375.28;;;-0.53;100.00
8051;BME280;4068;42.158;24.732;2023-01-08T06:23:42;100375.25;;;-0.51;100.00
8051;BME280;4068;42.158;24.732;2023-01-08T06:26:08;100362.34;;;-0.18;100.00
8051;BME280;4068;42.158;24.732;2023-01-08T06:28:34;100368.84;;;0.38;100.00
8051;BME280;4068;42.158;24.732;2023-01-08T06:31:00;100382.72;;;0.38;100.00
8051;BME280;4068;42.158;24.732;2023-01-08T06:33:26;100393.41;;;0.29;100.00
8051;BME280;4068;42.158;24.732;2023-01-08T06:35:52;100378.00;;;0.18;100.00
8051;BME280;4068;42.158;24.732;2023-01-08T06:38:18;100367.06;;;0.04;100.00
8051;BME280;4068;42.158;24.732;2023-01-08T06:40:44;100395.47;;;0.16;100.00
8051;BME280;4068;42.158;24.732;2023-01-08T06:43:10;100356.13;;;-0.12;100.00
8051;BME280;4068;42.158;24.732;2023-01-08T06:45:36;100401.56;;;0.15;100.00
8051;BME280;4068;42.158;24.732;2023-01-08T06:48:05;100397.16;;;0.19;100.00
8051;BME280;4068;42.158;24.732;2023-01-08T06:50:31;100404.78;;;0.26;100.00
8051;BME280;4068;42.158;24.732;2023-01-08T06:52:57;100413.38;;;0.30;100.00
8051;BME280;4068;42.158;24.732;2023-01-08T06:55:24;100415.09;;;0.31;100.00
8051;BME280;4068;42.158;24.732;2023-01-08T06:57:56;100376.31;;;0.15;100.00
8051;BME280;4068;42.158;24.732;2023-01-08T07:00:23;100383.94;;;0.25;100.00
8051;BME280;4068;42.158;24.732;2023-01-08T07:02:50;100406.09;;;0.43;100.00
8051;BME280;4068;42.158;24.732;2023-01-08T07:05:16;100420.31;;;0.65;100.00
8051;BME280;4068;42.158;24.732;2023-01-08T07:07:42;100419.03;;;0.82;100.00
8051;BME280;4068;42.158;24.732;2023-01-08T07:10:08;100418.97;;;0.85;100.00
8051;BME280;4068;42.158;24.732;2023-01-08T07:12:34;100424.75;;;0.96;100.00
8051;BME280;4068;42.158;24.732;2023-01-08T07:15:00;100416.78;;;1.01;100.00
8051;BME280;4068;42.158;24.732;2023-01-08T07:17:26;100421.09;;;1.03;100.00
8051;BME280;4068;42.158;24.732;2023-01-08T07:19:51;100429.56;;;1.12;100.00
8051;BME280;4068;42.158;24.732;2023-01-08T07:22:17;100437.16;;;1.21;100.00
8051;BME280;4068;42.158;24.732;2023-01-08T07:24:42;100395.00;;;1.02;100.00
8051;BME280;4068;42.158;24.732;2023-01-08T07:27:07;100441.16;;;1.34;100.00
8051;BME280;4068;42.158;24.732;2023-01-08T07:29:33;100439.75;;;1.52;100.00
8051;BME280;4068;42.158;24.732;2023-01-08T07:31:58;100435.94;;;1.64;100.00
8051;BME280;4068;42.158;24.732;2023-01-08T07:34:23;100437.22;;;1.79;100.00
8051;BME280;4068;42.158;24.732;2023-01-08T07:36:49;100440.47;;;1.87;100.00
8051;BME280;4068;42.158;24.732;2023-01-08T07:39:14;100440.13;;;2.00;100.00
8051;BME280;4068;42.158;24.732;2023-01-08T07:41:40;100443.13;;;2.16;100.00
8051;BME280;4068;42.158;24.732;2023-01-08T07:44:05;100409.56;;;2.00;100.00
8051;BME280;4068;42.158;24.732;2023-01-08T07:46:31;100450.59;;;2.28;100.00
8051;BME280;4068;42.158;24.732;2023-01-08T07:48:56;100413.44;;;2.17;100.00
8051;BME280;4068;42.158;24.732;2023-01-08T07:51:22;100415.53;;;2.32;100.00
8051;BME280;4068;42.158;24.732;2023-01-08T07:53:47;100441.72;;;2.59;100.00
8051;BME280;4068;42.158;24.732;2023-01-08T07:56:13;100449.19;;;2.71;100.00
8051;BME280;4068;42.158;24.732;2023-01-08T07:58:38;100457.53;;;2.83;100.00
8051;BME280;4068;42.158;24.732;2023-01-08T08:01:07;100448.09;;;3.04;100.00
8051;BME280;4068;42.158;24.732;2023-01-08T08:03:33;100438.34;;;3.07;100.00
8051;BME280;4068;42.158;24.732;2023-01-08T08:05:59;100413.53;;;2.92;100.00
8051;BME280;4068;42.158;24.732;2023-01-08T08:08:25;100449.88;;;3.27;100.00
8051;BME280;4068;42.158;24.732;2023-01-08T08:10:51;100447.75;;;3.38;100.00
8051;BME280;4068;42.158;24.732;2023-01-08T08:13:16;100446.59;;;3.45;100.00
8051;BME280;4068;42.158;24.732;2023-01-08T08:15:42;100447.78;;;3.60;100.00
8051;BME280;4068;42.158;24.732;2023-01-08T08:18:08;100442.34;;;3.67;100.00
8051;BME280;4068;42.158;24.732;2023-01-08T08:20:33;100443.81;;;3.74;100.00
8051;BME280;4068;42.158;24.732;2023-01-08T08:23:10;100444.09;;;3.90;100.00
8051;BME280;4068;42.158;24.732;2023-01-08T08:25:38;100445.16;;;4.08;100.00
8051;BME280;4068;42.158;24.732;2023-01-08T08:28:04;100452.53;;;4.20;100.00
8051;BME280;4068;42.158;24.732;2023-01-08T08:30:32;100426.59;;;4.12;100.00
8051;BME280;4068;42.158;24.732;2023-01-08T08:32:59;100440.75;;;4.30;100.00
8051;BME280;4068;42.158;24.732;2023-01-08T08:35:25;100436.03;;;4.39;100.00
8051;BME280;4068;42.158;24.732;2023-01-08T08:37:52;100443.56;;;4.48;100.00
8051;BME280;4068;42.158;24.732;2023-01-08T08:40:17;100441.53;;;4.55;100.00
8051;BME280;4068;42.158;24.732;2023-01-08T08:42:43;100437.81;;;4.60;100.00
8051;BME280;4068;42.158;24.732;2023-01-08T08:45:09;100444.72;;;4.83;100.00
8051;BME280;4068;42.158;24.732;2023-01-08T08:47:34;100444.25;;;4.94;100.00
8051;BME280;4068;42.158;24.732;2023-01-08T08:50:00;100425.41;;;4.84;100.00
8051;BME280;4068;42.158;24.732;2023-01-08T08:52:26;100445.09;;;5.15;100.00
8051;BME280;4068;42.158;24.732;2023-01-08T08:54:52;100444.50;;;5.29;100.00
8051;BME280;4068;42.158;24.732;2023-01-08T08:57:17;100424.66;;;5.41;100.00
8051;BME280;4068;42.158;24.732;2023-01-08T08:59:43;100439.00;;;5.55;100.00
8051;BME280;4068;42.158;24.732;2023-01-08T09:02:09;100429.59;;;5.87;100.00
8051;BME280;4068;42.158;24.732;2023-01-08T09:04:35;100434.31;;;5.99;100.00
8051;BME280;4068;42.158;24.732;2023-01-08T09:07:00;100434.59;;;6.12;100.00
8051;BME280;4068;42.158;24.732;2023-01-08T09:09:26;100418.44;;;6.20;100.00
8051;BME280;4068;42.158;24.732;2023-01-08T09:11:52;100423.88;;;6.34;100.00
8051;BME280;4068;42.158;24.732;2023-01-08T09:14:18;100414.38;;;6.49;100.00
8051;BME280;4068;42.158;24.732;2023-01-08T09:16:44;100418.19;;;6.79;100.00
8051;BME280;4068;42.158;24.732;2023-01-08T09:19:10;100396.63;;;6.70;100.00
8051;BME280;4068;42.158;24.732;2023-01-08T09:21:36;100420.63;;;6.99;100.00
8051;BME280;4068;42.158;24.732;2023-01-08T09:24:01;100415.75;;;7.09;100.00
8051;BME280;4068;42.158;24.732;2023-01-08T09:26:27;100379.84;;;6.89;99.43
8051;BME280;4068;42.158;24.732;2023-01-08T09:28:56;100394.91;;;7.04;99.78
8051;BME280;4068;42.158;24.732;2023-01-08T09:31:21;100403.56;;;7.24;99.67
8051;BME280;4068;42.158;24.732;2023-01-08T09:33:47;100375.53;;;7.21;98.16
8051;BME280;4068;42.158;24.732;2023-01-08T09:36:13;100388.50;;;7.42;98.67
8051;BME280;4068;42.158;24.732;2023-01-08T09:38:39;100379.59;;;7.60;97.19
8051;BME280;4068;42.158;24.732;2023-01-08T09:43:47;100375.53;;;7.87;95.43
8051;BME280;4068;42.158;24.732;2023-01-08T09:46:17;100352.84;;;7.83;94.04
8051;BME280;4068;42.158;24.732;2023-01-08T09:48:43;100369.03;;;7.92;93.52
8051;BME280;4068;42.158;24.732;2023-01-08T09:51:13;100373.94;;;8.15;92.43
8051;BME280;4068;42.158;24.732;2023-01-08T09:53:39;100363.59;;;8.26;91.90
8051;BME280;4068;42.158;24.732;2023-01-08T09:56:14;100352.91;;;8.43;90.35
8051;BME280;4068;42.158;24.732;2023-01-08T09:58:47;100361.78;;;8.42;89.66
8051;BME280;4068;42.158;24.732;2023-01-08T10:01:17;100350.78;;;8.50;90.30
8051;BME280;4068;42.158;24.732;2023-01-08T10:03:47;100350.69;;;8.52;86.62
8051;BME280;4068;42.158;24.732;2023-01-08T10:06:15;100331.16;;;8.24;86.70
8051;BME280;4068;42.158;24.732;2023-01-08T10:08:41;100334.34;;;8.29;86.11
8051;BME280;4068;42.158;24.732;2023-01-08T10:11:08;100346.84;;;8.57;86.21
8051;BME280;4068;42.158;24.732;2023-01-08T10:13:37;100336.66;;;8.66;86.82
8051;BME280;4068;42.158;24.732;2023-01-08T10:16:07;100327.13;;;8.77;84.38
8051;BME280;4068;42.158;24.732;2023-01-08T10:18:34;100333.66;;;8.86;84.85
8051;BME280;4068;42.158;24.732;2023-01-08T10:20:59;100317.22;;;8.81;83.72
8051;BME280;4068;42.158;24.732;2023-01-08T10:23:25;100327.13;;;9.06;82.57
8051;BME280;4068;42.158;24.732;2023-01-08T10:25:52;100319.97;;;9.08;83.27
8051;BME280;4068;42.158;24.732;2023-01-08T10:28:23;100233.03;;;8.59;82.28
8051;BME280;4068;42.158;24.732;2023-01-08T10:30:50;100312.66;;;9.12;82.94
8051;BME280;4068;42.158;24.732;2023-01-08T10:33:20;100299.28;;;9.15;83.60
8051;BME280;4068;42.158;24.732;2023-01-08T10:35:54;100295.97;;;9.11;83.00
8051;BME280;4068;42.158;24.732;2023-01-08T10:38:31;100269.72;;;8.94;83.09
8051;BME280;4068;42.158;24.732;2023-01-08T10:40:59;100290.03;;;9.08;83.10
8051;BME280;4068;42.158;24.732;2023-01-08T10:43:34;100287.34;;;9.22;83.64
8051;BME280;4068;42.158;24.732;2023-01-08T10:46:02;100286.84;;;9.30;82.78
8051;BME280;4068;42.158;24.732;2023-01-08T10:48:34;100278.91;;;9.30;82.50
8051;BME280;4068;42.158;24.732;2023-01-08T10:51:20;100276.34;;;9.43;82.44
8051;BME280;4068;42.158;24.732;2023-01-08T10:53:48;100280.09;;;9.53;81.76
8051;BME280;4068;42.158;24.732;2023-01-08T10:56:40;100268.09;;;9.47;80.24
8051;BME280;4068;42.158;24.732;2023-01-08T10:59:17;100243.56;;;9.31;81.25
8051;BME280;4068;42.158;24.732;2023-01-08T11:01:46;100258.91;;;9.53;80.03
8051;BME280;4068;42.158;24.732;2023-01-08T11:04:20;100225.25;;;9.28;81.01
8051;BME280;4068;42.158;24.732;2023-01-08T11:06:47;100242.69;;;9.45;80.90
8051;BME280;4068;42.158;24.732;2023-01-08T11:09:23;100244.97;;;9.64;81.01
8051;BME280;4068;42.158;24.732;2023-01-08T11:11:50;100247.78;;;9.75;79.89
8051;BME280;4068;42.158;24.732;2023-01-08T11:14:29;100246.69;;;9.65;79.29
8051;BME280;4068;42.158;24.732;2023-01-08T11:16:56;100240.63;;;9.63;80.89
8051;BME280;4068;42.158;24.732;2023-01-08T11:19:30;100225.44;;;9.79;80.39
8051;BME280;4068;42.158;24.732;2023-01-08T11:22:00;100247.94;;;9.99;80.29
8051;BME280;4068;42.158;24.732;2023-01-08T11:24:36;100242.34;;;10.17;79.39
8051;BME280;4068;42.158;24.732;2023-01-08T11:32:39;100233.97;;;10.23;78.01
8051;BME280;4068;42.158;24.732;2023-01-08T11:35:35;100224.84;;;10.27;77.78
8051;BME280;4068;42.158;24.732;2023-01-08T11:38:02;100227.28;;;10.17;77.37
8051;BME280;4068;42.158;24.732;2023-01-08T11:43:17;100196.97;;;10.22;77.67
8051;BME280;4068;42.158;24.732;2023-01-08T11:46:08;100212.19;;;10.45;77.78
8051;BME280;4068;42.158;24.732;2023-01-08T11:54:14;100205.38;;;10.41;78.59
8051;BME280;4068;42.158;24.732;2023-01-08T12:09:38;100191.03;;;10.31;78.26
8051;BME280;4068;42.158;24.732;2023-01-08T12:14:49;100184.28;;;10.52;78.52
8051;BME280;4068;42.158;24.732;2023-01-08T12:20:14;100182.03;;;10.72;77.76
8051;BME280;4068;42.158;24.732;2023-01-08T12:28:24;100179.28;;;10.61;78.61
8051;BME280;4068;42.158;24.732;2023-01-08T12:33:53;100177.06;;;10.55;77.99
8051;BME280;4068;42.158;24.732;2023-01-08T12:36:26;100158.41;;;10.43;77.16
8051;BME280;4068;42.158;24.732;2023-01-08T12:39:23;100181.63;;;10.52;77.53
8051;BME280;4068;42.158;24.732;2023-01-08T12:41:51;100182.38;;;10.55;77.69
8051;BME280;4068;42.158;24.732;2023-01-08T12:44:24;100179.41;;;10.59;78.01
8051;BME280;4068;42.158;24.732;2023-01-08T12:46:52;100174.50;;;10.66;78.04
8051;BME280;4068;42.158;24.732;2023-01-08T12:49:25;100180.22;;;10.73;77.82
8051;BME280;4068;42.158;24.732;2023-01-08T12:52:01;100184.81;;;10.58;77.08
8051;BME280;4068;42.158;24.732;2023-01-08T12:54:36;100177.06;;;10.55;77.21
8051;BME280;4068;42.158;24.732;2023-01-08T12:57:15;100178.41;;;10.60;77.48
8051;BME280;4068;42.158;24.732;2023-01-08T13:02:46;100175.84;;;10.71;77.60
8051;BME280;4068;42.158;24.732;2023-01-08T13:07:59;100153.59;;;10.61;76.50
8051;BME280;4068;42.158;24.732;2023-01-08T13:10:38;100169.00;;;10.69;76.81
8051;BME280;4068;42.158;24.732;2023-01-08T13:13:26;100134.44;;;10.45;76.95
8051;BME280;4068;42.158;24.732;2023-01-08T13:15:52;100170.16;;;10.65;77.15
8051;BME280;4068;42.158;24.732;2023-01-08T13:18:19;100173.88;;;10.62;77.22
8051;BME280;4068;42.158;24.732;2023-01-08T13:20:55;100179.06;;;10.64;76.37
8051;BME280;4068;42.158;24.732;2023-01-08T13:23:26;100173.75;;;10.64;76.83
8051;BME280;4068;42.158;24.732;2023-01-08T13:25:54;100165.50;;;10.56;77.14
8051;BME280;4068;42.158;24.732;2023-01-08T13:30:54;100174.00;;;10.48;76.80
8051;BME280;4068;42.158;24.732;2023-01-08T13:36:14;100166.13;;;10.33;76.60
8051;BME280;4068;42.158;24.732;2023-01-08T13:38:42;100170.56;;;10.33;76.92
8051;BME280;4068;42.158;24.732;2023-01-08T13:41:25;100171.72;;;10.29;77.15
8051;BME280;4068;42.158;24.732;2023-01-08T13:43:57;100168.34;;;10.27;77.42
8051;BME280;4068;42.158;24.732;2023-01-08T13:46:23;100162.63;;;10.20;77.68
8051;BME280;4068;42.158;24.732;2023-01-08T13:51:43;100165.81;;;10.12;77.93
8051;BME280;4068;42.158;24.732;2023-01-08T13:56:39;100161.00;;;10.05;77.55
8051;BME280;4068;42.158;24.732;2023-01-08T13:59:05;100135.25;;;9.81;77.57
8051;BME280;4068;42.158;24.732;2023-01-08T14:01:35;100176.16;;;9.90;77.33
8051;BME280;4068;42.158;24.732;2023-01-08T14:04:01;100173.84;;;9.85;77.37
8051;BME280;4068;42.158;24.732;2023-01-08T14:06:26;100142.63;;;9.63;77.86
8051;BME280;4068;42.158;24.732;2023-01-08T14:09:18;100175.31;;;9.76;77.50
8051;BME280;4068;42.158;24.732;2023-01-08T14:11:46;100158.00;;;9.58;77.78
8051;BME280;4068;42.158;24.732;2023-01-08T14:14:14;100170.06;;;9.62;77.46
8051;BME280;4068;42.158;24.732;2023-01-08T14:16:41;100170.59;;;9.54;77.90
8051;BME280;4068;42.158;24.732;2023-01-08T14:19:07;100135.16;;;9.29;78.07